Time;durP1;ratioP1;P1;durP2;ratioP2;P2;SDS_P1;SDS_P2;PMS_P1;PMS_P2;Temp;Humidity;BMP_temperature;BMP_pressure;BME280_temperature;BME280_humidity;BME280_pressure;Samples;Min_cycle;Max_cycle;Signal;HPM_P1;HPM_P2
2022/12/09 00:00:06;;;;;;;3.60;1.83;;;-3.20;99.90;;;;;;5096048;28;20142;-64
2022/12/09 00:02:34;;;;;;;2.00;1.45;;;-3.20;99.90;;;;;;5097092;28;20044;-62
2022/12/09 00:05:02;;;;;;;3.45;1.90;;;-3.20;99.90;;;;;;5099114;28;20055;-71
2022/12/09 00:07:29;;;;;;;2.78;1.25;;;-3.20;99.90;;;;;;5104641;28;20062;-62
2022/12/09 00:09:56;;;;;;;2.53;1.83;;;-3.20;99.90;;;;;;5116613;27;20555;-61
2022/12/09 00:12:23;;;;;;;2.35;1.77;;;-3.20;99.90;;;;;;5105021;28;20517;-70
2022/12/09 00:14:50;;;;;;;4.18;1.10;;;-3.20;99.90;;;;;;5094813;28;20048;-61
2022/12/09 00:17:17;;;;;;;1.65;1.30;;;-3.20;99.90;;;;;;5101856;28;20163;-62
2022/12/09 00:19:45;;;;;;;1.58;1.48;;;-3.20;99.90;;;;;;5100203;28;20373;-64
2022/12/09 00:22:12;;;;;;;1.30;1.08;;;-3.20;99.90;;;;;;5104616;28;20048;-64
2022/12/09 00:24:39;;;;;;;2.58;2.05;;;-3.20;99.90;;;;;;5110529;27;20048;-62
2022/12/09 00:27:06;;;;;;;1.33;1.23;;;-3.20;99.90;;;;;;5098644;28;20044;-72
2022/12/09 00:29:33;;;;;;;1.70;0.98;;;-3.30;99.90;;;;;;5097579;28;20058;-64
2022/12/09 00:32:00;;;;;;;2.35;1.40;;;-3.30;99.90;;;;;;5101125;28;20074;-61
2022/12/09 00:34:27;;;;;;;2.67;1.30;;;-3.20;99.90;;;;;;5100239;28;20130;-64
2022/12/09 00:36:54;;;;;;;1.95;1.27;;;-3.20;99.90;;;;;;5077335;28;20047;-62
2022/12/09 00:39:21;;;;;;;1.40;1.15;;;-3.20;99.90;;;;;;5085839;28;20521;-71
2022/12/09 00:41:50;;;;;;;3.97;1.40;;;-3.20;99.90;;;;;;5076201;28;20175;-62
2022/12/09 00:44:17;;;;;;;9.05;3.90;;;-3.20;99.90;;;;;;5088012;28;22049;-64
2022/12/09 00:46:45;;;;;;;2.33;1.38;;;-3.10;99.90;;;;;;5078606;28;20043;-64
2022/12/09 00:49:12;;;;;;;2.95;1.30;;;-3.10;99.90;;;;;;5075090;28;20044;-62
2022/12/09 00:51:39;;;;;;;5.45;1.40;;;-3.10;99.90;;;;;;5100974;28;20063;-63
2022/12/09 00:54:06;;;;;;;1.73;1.35;;;-3.00;99.90;;;;;;5099770;28;20468;-63
2022/12/09 00:56:33;;;;;;;2.58;1.35;;;-3.00;99.90;;;;;;5080270;28;20149;-68
2022/12/09 00:59:00;;;;;;;2.45;1.30;;;-2.90;99.90;;;;;;5097074;28;20040;-63
2022/12/09 01:01:28;;;;;;;1.30;0.93;;;-2.90;99.90;;;;;;5080416;28;20071;-62
2022/12/09 01:03:56;;;;;;;1.50;1.17;;;-2.90;99.90;;;;;;5083638;28;20047;-63
2022/12/09 01:06:25;;;;;;;1.40;1.10;;;-2.80;99.90;;;;;;5093822;28;20143;-62
2022/12/09 01:08:53;;;;;;;3.08;1.55;;;-2.80;99.90;;;;;;5080688;28;20108;-64
2022/12/09 01:11:26;;;;;;;1.83;1.10;;;-2.70;99.90;;;;;;5081975;28;20047;-70
2022/12/09 01:13:56;;;;;;;3.20;1.55;;;-2.70;99.90;;;;;;5101228;28;20047;-62
2022/12/09 01:16:25;;;;;;;3.35;1.17;;;-2.70;99.90;;;;;;5097638;28;20544;-67
2022/12/09 01:18:56;;;;;;;1.30;1.10;;;-2.70;99.90;;;;;;5100215;28;20064;-63
2022/12/09 01:21:23;;;;;;;3.10;0.85;;;-2.70;99.90;;;;;;5100038;28;20481;-65
2022/12/09 01:23:50;;;;;;;1.48;0.85;;;-2.70;99.90;;;;;;5082963;28;20358;-62
2022/12/09 01:26:18;;;;;;;1.70;1.08;;;-2.60;99.90;;;;;;5098309;28;20071;-62
2022/12/09 01:28:51;;;;;;;3.40;1.08;;;-2.60;99.90;;;;;;5078223;28;20071;-62
2022/12/09 01:31:22;;;;;;;1.95;1.35;;;-2.60;99.90;;;;;;5099151;28;20118;-65
2022/12/09 01:33:49;;;;;;;2.70;1.55;;;-2.60;99.90;;;;;;5097443;28;20058;-64
2022/12/09 01:36:25;;;;;;;1.65;0.88;;;-2.50;99.90;;;;;;5104069;28;20051;-64
2022/12/09 01:38:52;;;;;;;2.33;1.17;;;-2.50;99.90;;;;;;5078029;28;20131;-62
2022/12/09 01:41:20;;;;;;;2.60;1.90;;;-2.50;99.90;;;;;;5095737;28;20397;-63
2022/12/09 01:44:12;;;;;;;3.97;1.48;;;-2.50;99.90;;;;;;5114364;28;20052;-66
2022/12/09 01:46:40;;;;;;;2.80;0.95;;;-2.40;99.90;;;;;;5091740;28;20044;-62
2022/12/09 01:49:11;;;;;;;1.52;1.30;;;-2.40;99.90;;;;;;5094497;28;20565;-68
2022/12/09 01:51:38;;;;;;;2.72;1.60;;;-2.40;99.90;;;;;;5078289;28;20425;-62
2022/12/09 01:54:06;;;;;;;1.85;1.10;;;-2.40;99.90;;;;;;5094512;28;20056;-63
2022/12/09 01:56:34;;;;;;;1.35;0.95;;;-2.40;99.90;;;;;;5080456;28;20130;-64
2022/12/09 01:59:09;;;;;;;1.08;0.98;;;-2.30;99.90;;;;;;5108962;28;20060;-63
2022/12/09 02:01:37;;;;;;;2.05;1.13;;;-2.30;99.90;;;;;;5092693;28;20052;-63
2022/12/09 02:04:05;;;;;;;1.55;1.45;;;-2.30;99.90;;;;;;5083049;28;20134;-66
2022/12/09 02:06:36;;;;;;;1.67;0.90;;;-2.30;99.90;;;;;;5099418;28;20056;-65
2022/12/09 02:09:05;;;;;;;1.08;0.82;;;-2.30;99.90;;;;;;5082364;28;20047;-64
2022/12/09 02:11:55;;;;;;;1.13;1.02;;;-2.30;99.90;;;;;;5074697;28;20143;-62
2022/12/09 02:14:28;;;;;;;1.00;0.80;;;-2.30;99.90;;;;;;5059250;28;20130;-66
2022/12/09 02:17:18;;;;;;;1.35;1.20;;;-2.30;99.90;;;;;;5080995;28;20054;-62
2022/12/09 02:19:54;;;;;;;5.38;1.13;;;-2.20;99.90;;;;;;5082760;28;20044;-64
2022/12/09 02:22:28;;;;;;;3.17;1.10;;;-2.20;99.90;;;;;;5085954;28;20075;-62
2022/12/09 02:25:02;;;;;;;1.33;1.00;;;-2.20;99.90;;;;;;5082020;28;20074;-64
2022/12/09 02:27:39;;;;;;;1.42;0.80;;;-2.20;99.90;;;;;;5083504;28;20062;-63
2022/12/09 02:30:32;;;;;;;3.17;0.90;;;-2.20;99.90;;;;;;5105038;28;20052;-66
2022/12/09 02:33:16;;;;;;;2.03;1.15;;;-2.20;99.90;;;;;;5116639;27;20130;-63
2022/12/09 02:36:01;;;;;;;2.45;1.05;;;-2.20;99.90;;;;;;5088794;28;20048;-66
2022/12/09 02:38:31;;;;;;;1.10;0.70;;;-2.20;99.90;;;;;;5099443;28;20105;-64
2022/12/09 02:41:12;;;;;;;1.00;0.82;;;-2.20;99.90;;;;;;5086284;28;20464;-62
2022/12/09 02:43:48;;;;;;;0.93;0.80;;;-2.20;99.90;;;;;;5113514;27;20681;-70
2022/12/09 02:46:22;;;;;;;2.08;1.05;;;-2.30;99.90;;;;;;5077715;28;20550;-62
2022/12/09 02:48:55;;;;;;;2.70;0.80;;;-2.30;99.90;;;;;;5097294;28;20051;-62
2022/12/09 02:51:25;;;;;;;0.90;0.75;;;-2.30;99.90;;;;;;5101118;28;20048;-64
2022/12/09 02:53:57;;;;;;;1.85;0.98;;;-2.30;99.90;;;;;;5086001;28;20515;-63
2022/12/09 02:56:26;;;;;;;3.88;1.20;;;-2.30;99.90;;;;;;5093913;28;20048;-69
2022/12/09 02:58:53;;;;;;;2.22;1.00;;;-2.30;99.90;;;;;;5083543;28;20051;-64
2022/12/09 03:01:43;;;;;;;2.17;0.90;;;-2.40;99.90;;;;;;5079547;28;20047;-65
2022/12/09 03:04:18;;;;;;;1.00;0.85;;;-2.40;99.90;;;;;;5105685;28;20052;-68
2022/12/09 03:07:07;;;;;;;3.53;0.90;;;-2.40;99.90;;;;;;5097268;28;20147;-62
2022/12/09 03:09:39;;;;;;;2.47;1.03;;;-2.40;99.90;;;;;;5100302;28;20048;-61
2022/12/09 03:12:10;;;;;;;1.50;0.60;;;-2.40;99.90;;;;;;5102880;28;20098;-68
2022/12/09 03:14:43;;;;;;;2.28;0.80;;;-2.50;99.90;;;;;;5094610;28;20457;-62
2022/12/09 03:17:22;;;;;;;1.52;0.90;;;-2.40;99.90;;;;;;5101066;28;20130;-63
2022/12/09 03:19:54;;;;;;;1.10;0.82;;;-2.40;99.90;;;;;;5098857;28;20485;-61
2022/12/09 03:22:26;;;;;;;0.77;0.77;;;-2.50;99.90;;;;;;5098064;28;20043;-66
2022/12/09 03:24:56;;;;;;;1.77;1.02;;;-2.50;99.90;;;;;;5104173;27;20039;-62
2022/12/09 03:27:31;;;;;;;1.85;0.80;;;-2.50;99.90;;;;;;5100516;27;20054;-64
2022/12/09 03:30:01;;;;;;;1.15;0.80;;;-2.50;99.90;;;;;;5099736;28;20051;-66
2022/12/09 03:32:30;;;;;;;0.93;0.60;;;-2.50;99.90;;;;;;5104130;28;20464;-64
2022/12/09 03:35:08;;;;;;;3.45;1.10;;;-2.50;99.90;;;;;;5097785;28;20060;-67
2022/12/09 03:37:39;;;;;;;0.80;0.80;;;-2.50;99.90;;;;;;5102140;28;20586;-63
2022/12/09 03:40:11;;;;;;;1.50;0.93;;;-2.50;99.90;;;;;;5098514;28;20473;-66
2022/12/09 03:42:52;;;;;;;1.33;1.02;;;-2.50;99.90;;;;;;5094378;28;20135;-71
2022/12/09 03:45:22;;;;;;;2.17;0.85;;;-2.50;99.90;;;;;;5099839;28;20496;-65
2022/12/09 03:47:50;;;;;;;2.63;1.10;;;-2.60;99.90;;;;;;5097297;28;20047;-63
2022/12/09 03:50:19;;;;;;;1.30;0.80;;;-2.60;99.90;;;;;;5094432;28;20059;-65
2022/12/09 03:53:35;;;;;;;1.23;0.88;;;-2.60;99.90;;;;;;5099426;28;20070;-63
2022/12/09 03:56:28;;;;;;;2.08;1.48;;;-2.50;99.90;;;;;;5024697;28;20049;-62
2022/12/09 03:58:59;;;;;;;0.93;0.75;;;-2.50;99.90;;;;;;5019928;28;20119;-62
2022/12/09 04:01:28;;;;;;;1.17;1.08;;;-2.50;99.90;;;;;;5083256;28;20044;-64
2022/12/09 04:03:56;;;;;;;2.22;1.02;;;-2.50;99.90;;;;;;5100505;28;20131;-64
2022/12/09 04:06:24;;;;;;;2.80;1.30;;;-2.50;99.90;;;;;;5101754;28;20497;-62
2022/12/09 04:08:51;;;;;;;1.30;1.13;;;-2.60;99.90;;;;;;5094090;28;20056;-64
2022/12/09 04:11:25;;;;;;;1.25;0.80;;;-2.60;99.90;;;;;;5099572;28;20055;-64
2022/12/09 04:13:52;;;;;;;2.30;0.98;;;-2.60;99.90;;;;;;5099411;28;20126;-63
2022/12/09 04:16:19;;;;;;;2.25;0.95;;;-2.60;99.90;;;;;;5102375;28;20051;-70
2022/12/09 04:18:46;;;;;;;1.33;1.08;;;-2.60;99.90;;;;;;5092315;28;20531;-64
2022/12/09 04:21:14;;;;;;;2.53;1.00;;;-2.60;99.90;;;;;;5102285;28;20052;-62
2022/12/09 04:23:40;;;;;;;1.17;0.80;;;-2.70;99.90;;;;;;5102051;28;20044;-64
2022/12/09 04:26:15;;;;;;;1.60;0.80;;;-2.70;99.90;;;;;;5098684;28;20381;-63
2022/12/09 04:28:42;;;;;;;2.33;1.27;;;-2.70;99.90;;;;;;5096845;28;20075;-63
2022/12/09 04:31:14;;;;;;;3.42;0.80;;;-2.70;99.90;;;;;;5100108;28;20048;-68
2022/12/09 04:33:41;;;;;;;1.60;0.82;;;-2.70;99.90;;;;;;5103157;28;20047;-63
2022/12/09 04:36:12;;;;;;;2.15;1.63;;;-2.70;99.90;;;;;;5099862;28;20048;-68
2022/12/09 04:38:40;;;;;;;2.08;1.50;;;-2.70;99.90;;;;;;5093379;28;20097;-64
2022/12/09 04:41:07;;;;;;;3.85;0.90;;;-2.70;99.90;;;;;;5097727;28;20477;-68
2022/12/09 04:43:35;;;;;;;6.00;0.90;;;-2.70;99.90;;;;;;5096125;28;20082;-67
2022/12/09 04:46:09;;;;;;;2.13;0.80;;;-2.70;99.90;;;;;;5098722;28;20405;-62
2022/12/09 04:48:36;;;;;;;2.08;0.82;;;-2.60;99.90;;;;;;5098302;28;20047;-64
2022/12/09 04:51:03;;;;;;;1.15;0.93;;;-2.60;99.90;;;;;;5089653;28;20063;-63
2022/12/09 04:53:30;;;;;;;1.70;0.98;;;-2.60;99.90;;;;;;5092267;28;20079;-64
2022/12/09 04:56:03;;;;;;;1.67;1.17;;;-2.70;99.90;;;;;;5095536;28;20040;-68
2022/12/09 04:58:30;;;;;;;1.05;0.80;;;-2.60;99.90;;;;;;5101573;28;20092;-64
2022/12/09 05:00:57;;;;;;;1.58;0.93;;;-2.70;99.90;;;;;;5098738;28;20075;-64
2022/12/09 05:03:24;;;;;;;1.10;0.95;;;-2.60;99.90;;;;;;5098882;28;20085;-64
2022/12/09 05:05:51;;;;;;;2.15;1.70;;;-2.60;99.90;;;;;;5100078;28;20085;-62
2022/12/09 05:08:20;;;;;;;3.17;0.98;;;-2.60;99.90;;;;;;5099853;28;20044;-64
2022/12/09 05:10:49;;;;;;;1.48;1.17;;;-2.60;99.90;;;;;;5100309;28;20465;-65
2022/12/09 05:13:16;;;;;;;1.38;0.98;;;-2.60;99.90;;;;;;5099811;28;20043;-65
2022/12/09 05:15:43;;;;;;;1.33;0.80;;;-2.60;99.90;;;;;;5101305;28;20411;-62
2022/12/09 05:18:10;;;;;;;1.00;0.90;;;-2.60;99.90;;;;;;5097567;28;20123;-69
2022/12/09 05:20:39;;;;;;;6.13;1.20;;;-2.70;99.90;;;;;;5098069;28;20052;-63
2022/12/09 05:23:06;;;;;;;1.05;0.90;;;-2.60;99.90;;;;;;5099579;28;20058;-69
2022/12/09 05:25:36;;;;;;;0.93;0.73;;;-2.70;99.90;;;;;;5099053;28;20044;-64
2022/12/09 05:28:03;;;;;;;2.03;1.30;;;-2.70;99.90;;;;;;5098751;28;20062;-63
2022/12/09 05:30:30;;;;;;;2.15;1.10;;;-2.70;99.90;;;;;;5098460;28;20465;-62
2022/12/09 05:32:57;;;;;;;2.70;1.60;;;-2.70;99.90;;;;;;5097384;28;20106;-64
2022/12/09 05:35:24;;;;;;;4.00;2.03;;;-2.80;99.90;;;;;;5101042;28;20032;-62
2022/12/09 05:37:52;;;;;;;3.13;1.80;;;-2.80;99.90;;;;;;5096963;28;20058;-63
2022/12/09 05:40:19;;;;;;;3.47;1.85;;;-2.80;99.90;;;;;;5095182;28;20052;-71
2022/12/09 05:42:47;;;;;;;8.05;2.10;;;-2.70;99.90;;;;;;5095484;28;21330;-63
2022/12/09 05:45:14;;;;;;;2.78;1.50;;;-2.70;99.90;;;;;;5093876;28;20040;-64
2022/12/09 05:47:41;;;;;;;3.47;1.30;;;-2.70;99.90;;;;;;5100677;28;20449;-69
2022/12/09 05:50:09;;;;;;;2.03;1.20;;;-2.70;99.90;;;;;;5081202;28;20081;-66
2022/12/09 05:52:37;;;;;;;2.53;0.88;;;-2.60;99.90;;;;;;5062410;28;20595;-63
2022/12/09 05:55:07;;;;;;;1.60;1.23;;;-2.60;99.90;;;;;;5103631;28;20044;-68
2022/12/09 05:57:35;;;;;;;4.43;1.17;;;-2.60;99.90;;;;;;5099522;28;20044;-66
2022/12/09 06:00:05;;;;;;;3.15;1.77;;;-2.60;99.90;;;;;;5099418;28;20698;-64
2022/12/09 06:02:37;;;;;;;1.30;1.20;;;-2.50;99.90;;;;;;5101547;28;20137;-64
2022/12/09 06:05:05;;;;;;;2.45;1.52;;;-2.40;99.90;;;;;;5101461;28;20043;-69
2022/12/09 06:07:33;;;;;;;1.77;1.52;;;-2.40;99.90;;;;;;5103905;28;20043;-63
2022/12/09 06:10:02;;;;;;;3.05;2.03;;;-2.40;99.90;;;;;;5101570;28;20454;-67
2022/12/09 06:12:30;;;;;;;2.45;1.98;;;-2.40;99.90;;;;;;5104240;27;20157;-62
2022/12/09 06:14:57;;;;;;;6.32;1.23;;;-2.40;99.90;;;;;;5098241;28;20363;-70
2022/12/09 06:17:24;;;;;;;3.65;1.40;;;-2.40;99.90;;;;;;5101692;28;20044;-62
2022/12/09 06:19:52;;;;;;;3.47;1.67;;;-2.30;99.90;;;;;;5100364;28;20062;-62
2022/12/09 06:22:19;;;;;;;1.48;1.30;;;-2.30;99.90;;;;;;5098928;28;20071;-70
2022/12/09 06:24:45;;;;;;;5.18;1.38;;;-2.30;99.90;;;;;;5098620;28;20052;-64
2022/12/09 06:27:18;;;;;;;1.85;1.23;;;-2.30;99.90;;;;;;5096872;28;20352;-65
2022/12/09 06:29:45;;;;;;;5.38;1.52;;;-2.20;99.90;;;;;;5102848;28;20075;-68
2022/12/09 06:32:12;;;;;;;3.45;1.30;;;-2.20;99.90;;;;;;5097966;28;20040;-64
2022/12/09 06:34:40;;;;;;;3.50;1.50;;;-2.20;99.90;;;;;;5095307;28;20481;-62
2022/12/09 06:37:07;;;;;;;2.60;1.70;;;-2.30;99.90;;;;;;5099522;28;20105;-70
2022/12/09 06:39:34;;;;;;;5.45;2.22;;;-2.20;99.90;;;;;;5100751;28;20051;-62
2022/12/09 06:42:03;;;;;;;6.60;1.58;;;-2.20;99.90;;;;;;5099139;27;20044;-62
2022/12/09 06:44:30;;;;;;;4.57;1.10;;;-2.20;99.90;;;;;;5095681;28;20051;-69
2022/12/09 06:46:57;;;;;;;1.95;1.40;;;-2.20;99.90;;;;;;5095400;28;20055;-67
2022/12/09 06:49:24;;;;;;;1.50;1.20;;;-2.20;99.90;;;;;;5099674;28;20044;-63
2022/12/09 06:51:51;;;;;;;1.92;1.40;;;-2.10;99.90;;;;;;5096425;28;20043;-69
2022/12/09 06:54:18;;;;;;;1.95;1.27;;;-2.10;99.90;;;;;;5094575;28;20143;-65
2022/12/09 06:56:45;;;;;;;5.03;1.38;;;-2.10;99.90;;;;;;5100135;28;20166;-63
2022/12/09 06:59:13;;;;;;;1.70;1.45;;;-2.10;99.90;;;;;;5094870;28;20490;-69
2022/12/09 07:01:40;;;;;;;2.28;1.50;;;-2.20;99.90;;;;;;5094874;28;20036;-64
2022/12/09 07:04:12;;;;;;;14.23;1.50;;;-2.10;99.90;;;;;;5099429;28;20128;-63
2022/12/09 07:06:44;;;;;;;6.15;1.15;;;-2.10;99.90;;;;;;5096598;28;20151;-67
2022/12/09 07:09:14;;;;;;;1.30;1.17;;;-2.10;99.90;;;;;;5098736;28;20128;-63
2022/12/09 07:11:44;;;;;;;;;;;-2.10;99.90;;;;;;5099414;28;20062;-65
2022/12/09 07:14:13;;;;;;;2.08;1.55;;;-2.00;99.90;;;;;;5099860;28;19977;-64
2022/12/09 07:16:40;;;;;;;1.08;0.90;;;-2.00;99.90;;;;;;5095724;28;20043;-69
2022/12/09 07:19:17;;;;;;;1.73;1.25;;;-1.90;99.90;;;;;;5100826;28;20131;-64
2022/12/09 07:21:46;;;;;;;1.38;1.00;;;-1.90;99.90;;;;;;5098794;28;20052;-67
2022/12/09 07:24:13;;;;;;;1.63;0.90;;;-1.90;99.90;;;;;;5101384;28;20051;-63
2022/12/09 07:26:41;;;;;;;1.05;0.95;;;-1.80;99.90;;;;;;5100311;28;20055;-66
2022/12/09 07:29:08;;;;;;;1.45;1.25;;;-1.80;99.90;;;;;;5106697;28;20059;-67
2022/12/09 07:31:35;;;;;;;1.63;1.48;;;-1.70;99.90;;;;;;5106528;28;20131;-63
2022/12/09 07:34:04;;;;;;;2.53;1.67;;;-1.70;99.90;;;;;;5102896;27;20136;-63
2022/12/09 07:36:33;;;;;;;1.73;1.45;;;-1.60;99.90;;;;;;5103799;28;20055;-65
2022/12/09 07:39:04;;;;;;;4.30;1.65;;;-1.60;99.90;;;;;;5098193;27;20494;-65
2022/12/09 07:41:31;;;;;;;1.92;1.30;;;-1.50;99.90;;;;;;5098441;28;20040;-66
2022/12/09 07:43:58;;;;;;;1.85;1.33;;;-1.50;99.90;;;;;;5100559;28;20403;-67
2022/12/09 07:46:28;;;;;;;1.70;1.20;;;-1.50;99.90;;;;;;5103751;28;20048;-63
2022/12/09 07:48:56;;;;;;;1.90;1.20;;;-1.50;99.90;;;;;;5102895;27;20481;-63
2022/12/09 07:51:24;;;;;;;1.25;1.02;;;-1.40;99.90;;;;;;5104242;28;20120;-65
2022/12/09 07:53:52;;;;;;;1.98;1.00;;;-1.40;99.90;;;;;;5101966;28;20105;-64
2022/12/09 07:56:21;;;;;;;2.35;1.27;;;-1.40;99.90;;;;;;5100673;28;20050;-63
2022/12/09 07:58:52;;;;;;;5.38;2.17;;;-1.30;99.90;;;;;;5095647;28;20055;-63
2022/12/09 08:01:25;;;;;;;1.05;0.95;;;-1.30;99.90;;;;;;5102553;28;20510;-65
2022/12/09 08:03:52;;;;;;;1.02;0.70;;;-1.30;99.90;;;;;;5101853;28;20143;-63
2022/12/09 08:06:23;;;;;;;2.78;0.82;;;-1.30;99.90;;;;;;5104252;28;20138;-63
2022/12/09 08:08:51;;;;;;;2.03;1.25;;;-1.20;99.90;;;;;;5096860;28;20200;-66
2022/12/09 08:11:22;;;;;;;2.38;1.05;;;-1.20;99.90;;;;;;5100277;28;20560;-66
2022/12/09 08:13:51;;;;;;;3.72;1.65;;;-1.10;99.90;;;;;;5098835;28;20055;-65
2022/12/09 08:16:20;;;;;;;2.25;1.10;;;-1.10;99.90;;;;;;5097583;28;20359;-65
2022/12/09 08:18:49;;;;;;;1.23;1.00;;;-1.10;99.90;;;;;;5095340;28;20046;-63
2022/12/09 08:21:20;;;;;;;1.60;0.93;;;-1.10;99.90;;;;;;5098167;28;20410;-63
2022/12/09 08:23:47;;;;;;;1.40;1.13;;;-1.10;99.90;;;;;;5102601;28;20081;-63
2022/12/09 08:26:16;;;;;;;2.42;1.20;;;-1.00;99.90;;;;;;5099311;28;20047;-63
2022/12/09 08:28:43;;;;;;;2.55;1.55;;;-1.00;99.90;;;;;;5100988;28;20051;-64
2022/12/09 08:31:14;;;;;;;2.92;2.17;;;-1.10;99.90;;;;;;5099410;28;20142;-67
2022/12/09 08:33:41;;;;;;;1.85;1.42;;;-1.10;99.90;;;;;;5096378;28;20054;-63
2022/12/09 08:36:16;;;;;;;2.53;1.63;;;-1.10;99.90;;;;;;5099726;28;20096;-62
2022/12/09 08:38:44;;;;;;;2.42;1.73;;;-1.00;99.90;;;;;;5097372;28;20044;-64
2022/12/09 08:41:33;;;;;;;1.85;1.40;;;-1.00;99.90;;;;;;5098183;28;20039;-70
2022/12/09 08:44:05;;;;;;;;;;;-1.00;99.90;;;;;;5109344;27;20061;-65
2022/12/09 08:46:34;;;;;;;1.25;1.00;;;-1.00;99.90;;;;;;5095461;28;19930;-66
2022/12/09 08:49:03;;;;;;;2.70;1.15;;;-1.00;99.90;;;;;;5096163;28;20052;-65
2022/12/09 08:51:31;;;;;;;1.10;0.90;;;-1.00;99.90;;;;;;5100131;27;20130;-62
2022/12/09 08:53:59;;;;;;;1.23;1.00;;;-0.90;99.90;;;;;;5101971;28;20282;-63
2022/12/09 08:56:27;;;;;;;2.38;1.08;;;-0.90;99.90;;;;;;5101513;28;20480;-62
2022/12/09 08:58:54;;;;;;;1.27;1.02;;;-0.90;99.90;;;;;;5100457;27;20047;-63
2022/12/09 09:01:25;;;;;;;2.90;0.98;;;-0.80;99.90;;;;;;5098678;27;20047;-66
2022/12/09 09:03:53;;;;;;;1.52;0.50;;;-0.70;99.90;;;;;;5096598;28;20147;-65
2022/12/09 09:06:20;;;;;;;1.10;0.57;;;-0.70;99.90;;;;;;5100418;28;20047;-70
2022/12/09 09:08:48;;;;;;;3.80;0.90;;;-0.60;99.90;;;;;;5099004;28;20165;-64
2022/12/09 09:11:17;;;;;;;1.75;1.65;;;-0.60;99.90;;;;;;5097886;28;20036;-62
2022/12/09 09:13:47;;;;;;;2.58;1.83;;;-0.50;99.90;;;;;;5097995;28;20036;-68
2022/12/09 09:16:18;;;;;;;3.83;2.65;;;-0.40;99.90;;;;;;5096351;28;20130;-67
2022/12/09 09:18:46;;;;;;;1.92;1.70;;;-0.40;99.90;;;;;;5092929;28;20409;-62
2022/12/09 09:21:15;;;;;;;3.33;2.42;;;-0.30;99.90;;;;;;5097981;28;20066;-65
2022/12/09 09:23:43;;;;;;;2.03;1.63;;;-0.20;99.90;;;;;;5101148;27;20039;-62
2022/12/09 09:26:22;;;;;;;3.00;1.20;;;-0.10;99.90;;;;;;5098097;28;20137;-62
2022/12/09 09:28:50;;;;;;;1.00;1.00;;;0.00;99.90;;;;;;5097232;28;20052;-65
2022/12/09 09:31:19;;;;;;;0.95;0.73;;;0.00;99.90;;;;;;5095860;28;20483;-63
2022/12/09 09:33:47;;;;;;;5.30;0.93;;;0.00;99.90;;;;;;5092514;28;20040;-66
2022/12/09 09:36:19;;;;;;;1.90;1.10;;;0.00;99.90;;;;;;5101183;28;20100;-62
2022/12/09 09:38:52;;;;;;;2.53;1.38;;;0.10;99.90;;;;;;5099467;28;20055;-62
2022/12/09 09:41:38;;;;;;;1.75;1.60;;;0.00;99.90;;;;;;5099416;28;20071;-63
2022/12/09 09:44:15;;;;;;;1.73;1.58;;;0.00;99.90;;;;;;5095313;27;20052;-63
2022/12/09 09:46:45;;;;;;;2.40;1.30;;;0.10;99.90;;;;;;5094749;28;20120;-62
2022/12/09 09:49:19;;;;;;;4.20;2.22;;;0.00;99.90;;;;;;5092975;28;20036;-64
2022/12/09 09:51:46;;;;;;;3.38;1.33;;;0.00;99.90;;;;;;5097475;28;20052;-63
2022/12/09 09:54:14;;;;;;;3.70;1.50;;;0.00;99.90;;;;;;5100147;28;20047;-64
2022/12/09 09:57:29;;;;;;;2.17;1.33;;;0.10;99.90;;;;;;5093901;28;20401;-62
2022/12/09 10:00:19;;;;;;;3.72;1.23;;;0.00;99.90;;;;;;5053653;28;20054;-69
2022/12/09 10:03:33;;;;;;;1.75;1.05;;;0.00;99.90;;;;;;5100173;28;20044;-64
2022/12/09 10:06:30;;;;;;;2.58;1.67;;;0.10;99.90;;;;;;5101426;28;20075;-63
2022/12/09 10:09:33;;;;;;;3.63;1.63;;;0.00;99.90;;;;;;5099423;28;20110;-62
2022/12/09 10:12:09;;;;;;;3.05;1.23;;;0.00;99.90;;;;;;5094503;28;20142;-62
2022/12/09 10:14:49;;;;;;;3.55;1.80;;;0.00;99.90;;;;;;5094955;28;20054;-63
2022/12/09 10:17:27;;;;;;;3.78;1.70;;;0.10;99.90;;;;;;5100290;28;20166;-63
2022/12/09 10:20:02;;;;;;;3.78;3.10;;;0.10;99.90;;;;;;5100337;28;20044;-65
2022/12/09 10:22:45;;;;;;;2.80;1.42;;;0.10;99.90;;;;;;5100209;28;20115;-63
2022/12/09 10:25:23;;;;;;;1.10;1.00;;;0.10;99.90;;;;;;5100080;28;20123;-63
2022/12/09 10:27:54;;;;;;;3.42;1.35;;;0.20;99.90;;;;;;5096456;28;20052;-61
2022/12/09 10:30:22;;;;;;;2.28;1.35;;;0.10;99.90;;;;;;5106153;28;20054;-61
2022/12/09 10:32:49;;;;;;;1.40;0.98;;;0.20;99.90;;;;;;5092017;28;20125;-65
2022/12/09 10:35:16;;;;;;;3.13;1.25;;;0.30;99.90;;;;;;5096609;28;20047;-63
2022/12/09 10:37:45;;;;;;;4.50;1.00;;;0.30;99.90;;;;;;5099732;28;20067;-62
2022/12/09 10:40:39;;;;;;;1.08;0.98;;;0.40;99.90;;;;;;5103838;28;20408;-66
2022/12/09 10:43:42;;;;;;;2.05;1.33;;;0.40;99.90;;;;;;5100805;27;20162;-64
2022/12/09 10:46:18;;;;;;;3.22;1.23;;;0.40;99.90;;;;;;5101196;28;20043;-66
2022/12/09 10:48:47;;;;;;;1.80;1.40;;;0.50;99.90;;;;;;5099651;28;20040;-63
2022/12/09 10:51:22;;;;;;;2.25;1.40;;;0.50;99.90;;;;;;5102928;28;20050;-64
2022/12/09 10:53:57;;;;;;;2.58;1.63;;;0.50;99.90;;;;;;5099092;28;20071;-65
2022/12/09 10:56:28;;;;;;;3.25;1.67;;;0.50;99.90;;;;;;5101309;28;20050;-62
2022/12/09 10:59:09;;;;;;;2.65;1.55;;;0.60;99.90;;;;;;5099511;28;20134;-67
2022/12/09 11:02:06;;;;;;;1.50;1.20;;;0.70;99.90;;;;;;5102220;28;20036;-64
2022/12/09 11:04:42;;;;;;;3.85;2.13;;;0.80;99.90;;;;;;5085709;28;20051;-64
2022/12/09 11:07:19;;;;;;;2.78;2.00;;;0.90;99.90;;;;;;5100189;28;20052;-66
2022/12/09 11:10:03;;;;;;;4.47;1.20;;;1.00;99.90;;;;;;5097584;28;20052;-63
2022/12/09 11:12:38;;;;;;;2.88;0.60;;;1.30;99.90;;;;;;5100455;28;20059;-63
2022/12/09 11:15:10;;;;;;;1.48;0.40;;;1.50;99.90;;;;;;5096213;28;20433;-62
2022/12/09 11:17:55;;;;;;;2.80;0.77;;;1.70;99.90;;;;;;5101915;28;20450;-66
2022/12/09 11:20:26;;;;;;;1.75;0.80;;;1.90;99.90;;;;;;5103992;28;20036;-61
2022/12/09 11:23:01;;;;;;;1.35;0.63;;;2.00;99.90;;;;;;5097550;28;20070;-63
2022/12/09 11:25:33;;;;;;;1.23;0.57;;;2.00;99.90;;;;;;5103841;28;20740;-62
2022/12/09 11:28:21;;;;;;;0.65;0.50;;;2.10;99.90;;;;;;5104088;28;20047;-63
2022/12/09 11:30:51;;;;;;;3.25;0.40;;;2.20;99.90;;;;;;5099315;28;20582;-62
2022/12/09 11:34:21;;;;;;;2.58;0.57;;;2.30;99.90;;;;;;5104668;28;20486;-63
2022/12/09 11:36:52;;;;;;;1.55;0.68;;;2.30;99.90;;;;;;5036846;28;20048;-63
2022/12/09 11:39:24;;;;;;;;;;;2.30;99.90;;;;;;5102995;27;20064;-65
2022/12/09 11:42:13;;;;;;;1.00;0.60;;;2.30;99.90;;;;;;5098496;28;19923;-63
2022/12/09 11:44:55;;;;;;;4.45;1.13;;;2.40;99.90;;;;;;5096371;28;20761;-64
2022/12/09 11:47:39;;;;;;;1.33;0.60;;;2.30;99.90;;;;;;5098743;28;20071;-62
2022/12/09 11:50:32;;;;;;;1.08;0.50;;;2.40;99.90;;;;;;5100630;28;20634;-65
2022/12/09 11:53:11;;;;;;;1.95;0.28;;;2.40;99.90;;;;;;5098053;28;20047;-64
2022/12/09 11:56:06;;;;;;;0.30;0.30;;;2.40;99.90;;;;;;5102310;28;20052;-67
2022/12/09 11:58:40;;;;;;;1.50;0.65;;;2.40;99.90;;;;;;5095475;28;20044;-63
2022/12/09 12:01:29;;;;;;;1.85;0.50;;;2.40;99.90;;;;;;5099452;28;20055;-65
2022/12/09 12:04:00;;;;;;;4.13;1.02;;;2.40;99.90;;;;;;5103568;28;20043;-62
2022/12/09 12:06:45;;;;;;;4.18;0.63;;;2.40;99.90;;;;;;5097224;28;20075;-66
2022/12/09 12:09:16;;;;;;;2.80;0.75;;;2.40;99.90;;;;;;5062347;28;20085;-64
2022/12/09 12:12:04;;;;;;;0.82;0.75;;;2.40;99.90;;;;;;5101520;28;20048;-62
2022/12/09 12:14:34;;;;;;;7.55;1.63;;;2.40;99.90;;;;;;5098632;28;20481;-68
2022/12/09 12:17:22;;;;;;;1.13;0.82;;;2.40;99.90;;;;;;5099117;28;20056;-63
2022/12/09 12:19:51;;;;;;;1.23;0.45;;;2.40;99.90;;;;;;5100673;28;20054;-64
2022/12/09 12:22:56;;;;;;;2.00;0.63;;;2.40;99.90;;;;;;5103098;28;20152;-63
2022/12/09 12:25:47;;;;;;;2.72;1.38;;;2.40;99.90;;;;;;5101152;28;20168;-62
2022/12/09 12:28:44;;;;;;;1.13;0.45;;;2.40;99.90;;;;;;5103628;28;20047;-64
2022/12/09 12:31:32;;;;;;;2.50;0.50;;;2.40;99.90;;;;;;5092117;28;20161;-63
2022/12/09 12:34:34;;;;;;;1.15;0.68;;;2.40;99.90;;;;;;5100562;28;20059;-63
2022/12/09 12:37:32;;;;;;;3.00;0.82;;;2.30;99.90;;;;;;5061317;28;20435;-64
2022/12/09 12:40:32;;;;;;;2.28;0.55;;;2.30;99.90;;;;;;5102461;28;20043;-65
2022/12/09 12:46:35;;;;;;;1.40;0.65;;;2.30;99.90;;;;;;5102440;28;20044;-69
2022/12/09 12:49:39;;;;;;;2.75;1.20;;;2.30;99.90;;;;;;5100306;28;20135;-62
2022/12/09 12:52:15;;;;;;;1.33;1.23;;;2.30;99.90;;;;;;5055497;28;20050;-63
2022/12/09 12:55:43;;;;;;;1.70;0.80;;;2.30;99.90;;;;;;5096960;28;20060;-67
2022/12/09 12:58:52;;;;;;;1.33;0.68;;;2.30;99.90;;;;;;5100216;28;20074;-65
2022/12/09 13:01:50;;;;;;;1.15;0.85;;;2.20;99.90;;;;;;5100613;28;20047;-65
2022/12/09 13:04:31;;;;;;;2.92;0.93;;;2.20;99.90;;;;;;5069952;28;20039;-66
2022/12/09 13:07:28;;;;;;;1.48;1.23;;;2.20;99.90;;;;;;5093528;28;20133;-68
2022/12/09 13:10:07;;;;;;;4.20;0.50;;;2.30;99.90;;;;;;5100232;28;20126;-61
2022/12/09 13:12:55;;;;;;;1.13;0.57;;;2.20;99.90;;;;;;5112497;27;20396;-62
2022/12/09 13:15:31;;;;;;;1.95;0.75;;;2.30;99.90;;;;;;5099785;28;20093;-63
2022/12/09 13:18:09;;;;;;;1.25;0.75;;;2.30;99.90;;;;;;5097419;28;20561;-64
2022/12/09 13:20:57;;;;;;;3.05;0.60;;;2.30;99.90;;;;;;5104378;28;20116;-66
2022/12/09 13:23:57;;;;;;;0.73;0.63;;;2.30;99.90;;;;;;5100417;27;20069;-63
2022/12/09 13:26:56;;;;;;;1.02;0.93;;;2.30;99.90;;;;;;5098050;28;20461;-62